sensor_id;sensor_type;location;lat;lon;timestamp;P1;durP1;ratioP1;P2;durP2;ratioP2
27505;SDS011;14939;43.596;1.320;2023-02-03T00:01:48;44.90;;;20.33;;
27505;SDS011;14939;43.596;1.320;2023-02-03T00:04:14;49.80;;;21.30;;
27505;SDS011;14939;43.596;1.320;2023-02-03T00:06:40;56.97;;;23.17;;
27505;SDS011;14939;43.596;1.320;2023-02-03T00:09:06;44.67;;;20.58;;
27505;SDS011;14939;43.596;1.320;2023-02-03T00:11:32;44.20;;;20.25;;
27505;SDS011;14939;43.596;1.320;2023-02-03T00:13:57;43.92;;;19.70;;
27505;SDS011;14939;43.596;1.320;2023-02-03T00:16:23;43.80;;;20.95;;
27505;SDS011;14939;43.596;1.320;2023-02-03T00:18:49;43.90;;;20.58;;
27505;SDS011;14939;43.596;1.320;2023-02-03T00:21:15;45.63;;;20.38;;
27505;SDS011;14939;43.596;1.320;2023-02-03T00:23:41;52.45;;;23.25;;
27505;SDS011;14939;43.596;1.320;2023-02-03T00:26:11;63.08;;;27.60;;
27505;SDS011;14939;43.596;1.320;2023-02-03T00:28:39;56.55;;;23.17;;
27505;SDS011;14939;43.596;1.320;2023-02-03T00:31:05;43.22;;;21.55;;
27505;SDS011;14939;43.596;1.320;2023-02-03T00:33:38;41.88;;;20.88;;
27505;SDS011;14939;43.596;1.320;2023-02-03T00:36:04;45.30;;;20.38;;
27505;SDS011;14939;43.596;1.320;2023-02-03T00:38:30;39.85;;;18.73;;
27505;SDS011;14939;43.596;1.320;2023-02-03T00:40:56;39.70;;;18.92;;
27505;SDS011;14939;43.596;1.320;2023-02-03T00:43:22;41.72;;;18.95;;
27505;SDS011;14939;43.596;1.320;2023-02-03T00:45:47;54.30;;;23.20;;
27505;SDS011;14939;43.596;1.320;2023-02-03T00:48:13;45.00;;;20.98;;
27505;SDS011;14939;43.596;1.320;2023-02-03T00:50:39;46.13;;;20.65;;
27505;SDS011;14939;43.596;1.320;2023-02-03T00:53:05;39.83;;;18.63;;
27505;SDS011;14939;43.596;1.320;2023-02-03T00:55:31;37.67;;;18.85;;
27505;SDS011;14939;43.596;1.320;2023-02-03T00:57:57;40.33;;;17.83;;
27505;SDS011;14939;43.596;1.320;2023-02-03T01:00:23;41.85;;;17.70;;
27505;SDS011;14939;43.596;1.320;2023-02-03T01:02:49;36.10;;;18.40;;
27505;SDS011;14939;43.596;1.320;2023-02-03T01:05:14;57.00;;;24.80;;
27505;SDS011;14939;43.596;1.320;2023-02-03T01:07:40;41.80;;;21.45;;
27505;SDS011;14939;43.596;1.320;2023-02-03T01:10:06;52.25;;;22.10;;
27505;SDS011;14939;43.596;1.320;2023-02-03T01:12:32;49.15;;;21.30;;
27505;SDS011;14939;43.596;1.320;2023-02-03T01:14:58;46.10;;;20.35;;
27505;SDS011;14939;43.596;1.320;2023-02-03T01:17:24;39.95;;;19.00;;
27505;SDS011;14939;43.596;1.320;2023-02-03T01:19:50;49.85;;;20.20;;
27505;SDS011;14939;43.596;1.320;2023-02-03T01:22:16;38.75;;;18.42;;
27505;SDS011;14939;43.596;1.320;2023-02-03T01:24:42;42.83;;;19.02;;
27505;SDS011;14939;43.596;1.320;2023-02-03T01:27:08;49.05;;;20.92;;
27505;SDS011;14939;43.596;1.320;2023-02-03T01:29:33;40.45;;;19.65;;
27505;SDS011;14939;43.596;1.320;2023-02-03T01:31:59;36.67;;;17.35;;
27505;SDS011;14939;43.596;1.320;2023-02-03T01:34:25;38.72;;;16.55;;
27505;SDS011;14939;43.596;1.320;2023-02-03T01:36:50;36.63;;;17.58;;
27505;SDS011;14939;43.596;1.320;2023-02-03T01:39:16;35.58;;;17.42;;
27505;SDS011;14939;43.596;1.320;2023-02-03T01:41:42;34.83;;;17.55;;
27505;SDS011;14939;43.596;1.320;2023-02-03T01:46:59;30.35;;;15.80;;
27505;SDS011;14939;43.596;1.320;2023-02-03T01:49:26;35.17;;;16.05;;
27505;SDS011;14939;43.596;1.320;2023-02-03T01:51:56;32.80;;;16.48;;
27505;SDS011;14939;43.596;1.320;2023-02-03T01:54:26;33.17;;;15.93;;
27505;SDS011;14939;43.596;1.320;2023-02-03T01:56:58;35.60;;;17.63;;
27505;SDS011;14939;43.596;1.320;2023-02-03T01:59:28;41.22;;;16.27;;
27505;SDS011;14939;43.596;1.320;2023-02-03T02:01:57;36.72;;;16.90;;
27505;SDS011;14939;43.596;1.320;2023-02-03T02:04:25;36.10;;;16.92;;
27505;SDS011;14939;43.596;1.320;2023-02-03T02:06:56;37.15;;;18.52;;
27505;SDS011;14939;43.596;1.320;2023-02-03T02:09:23;35.15;;;17.05;;
27505;SDS011;14939;43.596;1.320;2023-02-03T02:11:50;36.40;;;15.13;;
27505;SDS011;14939;43.596;1.320;2023-02-03T02:14:16;34.70;;;15.70;;
27505;SDS011;14939;43.596;1.320;2023-02-03T02:17:00;36.70;;;16.02;;
27505;SDS011;14939;43.596;1.320;2023-02-03T02:33:51;34.22;;;14.75;;
27505;SDS011;14939;43.596;1.320;2023-02-03T02:37:16;33.58;;;15.55;;
27505;SDS011;14939;43.596;1.320;2023-02-03T02:39:55;31.52;;;15.05;;
27505;SDS011;14939;43.596;1.320;2023-02-03T02:45:13;30.23;;;13.43;;
27505;SDS011;14939;43.596;1.320;2023-02-03T02:47:41;27.58;;;13.60;;
27505;SDS011;14939;43.596;1.320;2023-02-03T02:50:10;30.10;;;13.75;;
27505;SDS011;14939;43.596;1.320;2023-02-03T02:52:38;28.17;;;13.18;;
27505;SDS011;14939;43.596;1.320;2023-02-03T02:55:10;29.55;;;12.60;;
27505;SDS011;14939;43.596;1.320;2023-02-03T02:57:57;25.13;;;12.93;;
27505;SDS011;14939;43.596;1.320;2023-02-03T03:00:29;32.50;;;13.32;;
27505;SDS011;14939;43.596;1.320;2023-02-03T03:02:55;35.28;;;13.65;;
27505;SDS011;14939;43.596;1.320;2023-02-03T03:05:21;30.35;;;13.82;;
27505;SDS011;14939;43.596;1.320;2023-02-03T03:07:53;31.00;;;14.02;;
27505;SDS011;14939;43.596;1.320;2023-02-03T03:10:23;28.35;;;13.40;;
27505;SDS011;14939;43.596;1.320;2023-02-03T03:12:54;37.95;;;12.57;;
27505;SDS011;14939;43.596;1.320;2023-02-03T03:15:26;28.17;;;12.45;;
27505;SDS011;14939;43.596;1.320;2023-02-03T03:20:40;22.35;;;12.13;;
27505;SDS011;14939;43.596;1.320;2023-02-03T03:23:17;28.23;;;12.35;;
27505;SDS011;14939;43.596;1.320;2023-02-03T03:25:50;34.15;;;13.88;;
27505;SDS011;14939;43.596;1.320;2023-02-03T03:28:24;33.70;;;14.32;;
27505;SDS011;14939;43.596;1.320;2023-02-03T03:30:58;36.45;;;15.88;;
27505;SDS011;14939;43.596;1.320;2023-02-03T03:33:23;37.15;;;15.40;;
27505;SDS011;14939;43.596;1.320;2023-02-03T03:36:00;30.80;;;13.90;;
27505;SDS011;14939;43.596;1.320;2023-02-03T03:38:36;37.17;;;14.52;;
27505;SDS011;14939;43.596;1.320;2023-02-03T03:41:18;27.65;;;14.25;;
27505;SDS011;14939;43.596;1.320;2023-02-03T03:43:46;29.23;;;13.50;;
27505;SDS011;14939;43.596;1.320;2023-02-03T03:46:16;31.85;;;12.93;;
27505;SDS011;14939;43.596;1.320;2023-02-03T03:48:49;31.73;;;13.10;;
27505;SDS011;14939;43.596;1.320;2023-02-03T03:54:16;25.40;;;13.02;;
27505;SDS011;14939;43.596;1.320;2023-02-03T03:59:15;32.88;;;15.55;;
27505;SDS011;14939;43.596;1.320;2023-02-03T04:01:45;38.83;;;14.75;;
27505;SDS011;14939;43.596;1.320;2023-02-03T04:04:12;25.15;;;13.60;;
27505;SDS011;14939;43.596;1.320;2023-02-03T04:06:39;34.17;;;14.70;;
27505;SDS011;14939;43.596;1.320;2023-02-03T04:09:05;34.38;;;14.90;;
27505;SDS011;14939;43.596;1.320;2023-02-03T04:11:31;45.65;;;18.00;;
27505;SDS011;14939;43.596;1.320;2023-02-03T04:14:29;40.38;;;18.33;;
27505;SDS011;14939;43.596;1.320;2023-02-03T04:16:59;36.42;;;16.45;;
27505;SDS011;14939;43.596;1.320;2023-02-03T04:19:26;38.72;;;15.25;;
27505;SDS011;14939;43.596;1.320;2023-02-03T04:21:52;33.20;;;14.57;;
27505;SDS011;14939;43.596;1.320;2023-02-03T04:24:17;33.47;;;14.10;;
27505;SDS011;14939;43.596;1.320;2023-02-03T04:26:43;34.28;;;14.15;;
27505;SDS011;14939;43.596;1.320;2023-02-03T04:29:09;37.17;;;16.10;;
27505;SDS011;14939;43.596;1.320;2023-02-03T04:31:35;38.67;;;19.17;;
27505;SDS011;14939;43.596;1.320;2023-02-03T04:34:02;30.80;;;16.55;;
27505;SDS011;14939;43.596;1.320;2023-02-03T04:36:28;45.15;;;19.63;;
27505;SDS011;14939;43.596;1.320;2023-02-03T04:38:54;34.88;;;16.27;;
27505;SDS011;14939;43.596;1.320;2023-02-03T04:41:20;31.98;;;14.48;;
27505;SDS011;14939;43.596;1.320;2023-02-03T04:43:45;29.05;;;13.88;;
27505;SDS011;14939;43.596;1.320;2023-02-03T04:46:11;34.25;;;13.85;;
27505;SDS011;14939;43.596;1.320;2023-02-03T04:48:37;29.45;;;12.88;;
27505;SDS011;14939;43.596;1.320;2023-02-03T04:51:03;29.02;;;14.00;;
27505;SDS011;14939;43.596;1.320;2023-02-03T04:53:30;31.48;;;12.90;;
27505;SDS011;14939;43.596;1.320;2023-02-03T04:55:56;28.60;;;13.38;;
27505;SDS011;14939;43.596;1.320;2023-02-03T04:58:22;35.22;;;16.67;;
27505;SDS011;14939;43.596;1.320;2023-02-03T05:00:48;51.72;;;22.50;;
27505;SDS011;14939;43.596;1.320;2023-02-03T05:03:14;40.03;;;17.48;;
27505;SDS011;14939;43.596;1.320;2023-02-03T05:05:39;46.38;;;16.88;;
27505;SDS011;14939;43.596;1.320;2023-02-03T05:08:05;41.13;;;18.25;;
27505;SDS011;14939;43.596;1.320;2023-02-03T05:10:31;33.60;;;14.88;;
27505;SDS011;14939;43.596;1.320;2023-02-03T05:12:56;32.80;;;13.07;;
27505;SDS011;14939;43.596;1.320;2023-02-03T05:15:22;27.55;;;13.98;;
27505;SDS011;14939;43.596;1.320;2023-02-03T05:17:50;31.98;;;13.35;;
27505;SDS011;14939;43.596;1.320;2023-02-03T05:20:17;27.75;;;12.90;;
27505;SDS011;14939;43.596;1.320;2023-02-03T05:22:42;25.88;;;13.07;;
27505;SDS011;14939;43.596;1.320;2023-02-03T05:25:08;28.02;;;12.48;;
27505;SDS011;14939;43.596;1.320;2023-02-03T05:27:36;30.17;;;13.35;;
27505;SDS011;14939;43.596;1.320;2023-02-03T05:30:02;34.50;;;14.15;;
27505;SDS011;14939;43.596;1.320;2023-02-03T05:32:28;29.33;;;14.90;;
27505;SDS011;14939;43.596;1.320;2023-02-03T05:34:54;27.02;;;15.63;;
27505;SDS011;14939;43.596;1.320;2023-02-03T05:37:20;33.70;;;15.05;;
27505;SDS011;14939;43.596;1.320;2023-02-03T05:39:46;32.13;;;15.13;;
27505;SDS011;14939;43.596;1.320;2023-02-03T05:42:11;30.40;;;15.88;;
27505;SDS011;14939;43.596;1.320;2023-02-03T05:44:37;29.10;;;14.43;;
27505;SDS011;14939;43.596;1.320;2023-02-03T05:47:03;34.35;;;15.05;;
27505;SDS011;14939;43.596;1.320;2023-02-03T05:49:28;30.75;;;14.60;;
27505;SDS011;14939;43.596;1.320;2023-02-03T05:51:54;31.08;;;16.67;;
27505;SDS011;14939;43.596;1.320;2023-02-03T05:54:21;39.70;;;18.48;;
27505;SDS011;14939;43.596;1.320;2023-02-03T05:56:47;34.92;;;16.35;;
27505;SDS011;14939;43.596;1.320;2023-02-03T05:59:12;27.48;;;14.63;;
27505;SDS011;14939;43.596;1.320;2023-02-03T06:01:38;31.02;;;15.27;;
27505;SDS011;14939;43.596;1.320;2023-02-03T06:04:04;35.10;;;15.52;;
27505;SDS011;14939;43.596;1.320;2023-02-03T06:06:30;33.40;;;15.40;;
27505;SDS011;14939;43.596;1.320;2023-02-03T06:09:03;39.80;;;17.65;;
27505;SDS011;14939;43.596;1.320;2023-02-03T06:11:31;39.67;;;18.77;;
27505;SDS011;14939;43.596;1.320;2023-02-03T06:13:57;36.38;;;18.88;;
27505;SDS011;14939;43.596;1.320;2023-02-03T06:16:24;34.28;;;17.42;;
27505;SDS011;14939;43.596;1.320;2023-02-03T06:18:51;37.15;;;17.58;;
27505;SDS011;14939;43.596;1.320;2023-02-03T06:21:17;36.22;;;17.23;;
27505;SDS011;14939;43.596;1.320;2023-02-03T06:23:44;35.47;;;16.15;;
27505;SDS011;14939;43.596;1.320;2023-02-03T06:26:10;38.80;;;15.77;;
27505;SDS011;14939;43.596;1.320;2023-02-03T06:28:36;35.15;;;14.70;;
27505;SDS011;14939;43.596;1.320;2023-02-03T06:31:02;32.95;;;15.05;;
27505;SDS011;14939;43.596;1.320;2023-02-03T06:33:29;37.92;;;17.67;;
27505;SDS011;14939;43.596;1.320;2023-02-03T06:35:55;30.90;;;15.40;;
27505;SDS011;14939;43.596;1.320;2023-02-03T06:38:21;28.05;;;14.60;;
27505;SDS011;14939;43.596;1.320;2023-02-03T06:40:47;32.42;;;14.30;;
27505;SDS011;14939;43.596;1.320;2023-02-03T06:43:13;32.97;;;14.27;;
27505;SDS011;14939;43.596;1.320;2023-02-03T06:45:39;35.25;;;18.08;;
27505;SDS011;14939;43.596;1.320;2023-02-03T06:48:05;31.98;;;14.27;;
27505;SDS011;14939;43.596;1.320;2023-02-03T06:50:31;36.20;;;15.52;;
27505;SDS011;14939;43.596;1.320;2023-02-03T06:52:57;32.90;;;16.42;;
27505;SDS011;14939;43.596;1.320;2023-02-03T06:55:23;37.33;;;15.82;;
27505;SDS011;14939;43.596;1.320;2023-02-03T06:57:49;32.70;;;15.00;;
27505;SDS011;14939;43.596;1.320;2023-02-03T07:00:16;40.28;;;15.45;;
27505;SDS011;14939;43.596;1.320;2023-02-03T07:02:42;30.00;;;14.48;;
27505;SDS011;14939;43.596;1.320;2023-02-03T07:05:08;37.92;;;14.88;;
27505;SDS011;14939;43.596;1.320;2023-02-03T07:07:35;29.60;;;13.70;;
27505;SDS011;14939;43.596;1.320;2023-02-03T07:10:03;38.17;;;17.17;;
27505;SDS011;14939;43.596;1.320;2023-02-03T07:12:30;77.40;;;41.45;;
27505;SDS011;14939;43.596;1.320;2023-02-03T07:14:56;68.78;;;36.80;;
27505;SDS011;14939;43.596;1.320;2023-02-03T07:17:21;57.75;;;30.98;;
27505;SDS011;14939;43.596;1.320;2023-02-03T07:19:47;40.95;;;22.50;;
27505;SDS011;14939;43.596;1.320;2023-02-03T07:22:13;44.90;;;23.13;;
27505;SDS011;14939;43.596;1.320;2023-02-03T07:24:39;51.83;;;28.13;;
27505;SDS011;14939;43.596;1.320;2023-02-03T07:27:05;41.20;;;23.40;;
27505;SDS011;14939;43.596;1.320;2023-02-03T07:29:31;42.92;;;24.33;;
27505;SDS011;14939;43.596;1.320;2023-02-03T07:31:56;39.67;;;18.38;;
27505;SDS011;14939;43.596;1.320;2023-02-03T07:34:22;38.90;;;17.08;;
27505;SDS011;14939;43.596;1.320;2023-02-03T07:36:48;26.73;;;14.35;;
27505;SDS011;14939;43.596;1.320;2023-02-03T07:39:13;28.23;;;13.70;;
27505;SDS011;14939;43.596;1.320;2023-02-03T07:41:39;31.63;;;13.45;;
27505;SDS011;14939;43.596;1.320;2023-02-03T07:44:05;33.45;;;13.30;;
27505;SDS011;14939;43.596;1.320;2023-02-03T07:46:30;38.70;;;14.68;;
27505;SDS011;14939;43.596;1.320;2023-02-03T07:48:56;29.85;;;14.20;;
27505;SDS011;14939;43.596;1.320;2023-02-03T07:51:22;35.03;;;14.73;;
27505;SDS011;14939;43.596;1.320;2023-02-03T07:53:47;32.15;;;14.32;;
27505;SDS011;14939;43.596;1.320;2023-02-03T07:56:13;34.17;;;14.93;;
27505;SDS011;14939;43.596;1.320;2023-02-03T07:58:39;29.58;;;14.20;;
27505;SDS011;14939;43.596;1.320;2023-02-03T08:01:08;30.58;;;14.65;;
27505;SDS011;14939;43.596;1.320;2023-02-03T08:03:36;30.20;;;12.40;;
27505;SDS011;14939;43.596;1.320;2023-02-03T08:06:01;38.47;;;17.85;;
27505;SDS011;14939;43.596;1.320;2023-02-03T08:08:27;37.25;;;19.02;;
27505;SDS011;14939;43.596;1.320;2023-02-03T08:10:56;38.25;;;16.30;;
27505;SDS011;14939;43.596;1.320;2023-02-03T08:13:23;32.72;;;15.73;;
27505;SDS011;14939;43.596;1.320;2023-02-03T08:15:48;34.92;;;16.55;;
27505;SDS011;14939;43.596;1.320;2023-02-03T08:18:14;31.50;;;15.93;;
27505;SDS011;14939;43.596;1.320;2023-02-03T08:20:40;34.85;;;14.90;;
27505;SDS011;14939;43.596;1.320;2023-02-03T08:23:06;35.78;;;15.43;;
27505;SDS011;14939;43.596;1.320;2023-02-03T08:28:53;35.08;;;15.50;;
27505;SDS011;14939;43.596;1.320;2023-02-03T08:31:19;34.20;;;15.23;;
27505;SDS011;14939;43.596;1.320;2023-02-03T08:33:45;42.88;;;16.15;;
27505;SDS011;14939;43.596;1.320;2023-02-03T08:36:11;34.45;;;15.38;;
27505;SDS011;14939;43.596;1.320;2023-02-03T08:38:37;53.42;;;26.98;;
27505;SDS011;14939;43.596;1.320;2023-02-03T08:41:07;60.30;;;32.13;;
27505;SDS011;14939;43.596;1.320;2023-02-03T08:43:35;33.70;;;17.00;;
27505;SDS011;14939;43.596;1.320;2023-02-03T08:46:01;38.28;;;18.08;;
27505;SDS011;14939;43.596;1.320;2023-02-03T08:48:31;41.20;;;20.42;;
27505;SDS011;14939;43.596;1.320;2023-02-03T08:50:57;39.35;;;17.17;;
27505;SDS011;14939;43.596;1.320;2023-02-03T08:53:23;44.05;;;19.83;;
27505;SDS011;14939;43.596;1.320;2023-02-03T08:55:49;45.03;;;19.92;;
27505;SDS011;14939;43.596;1.320;2023-02-03T08:58:15;43.55;;;23.20;;
27505;SDS011;14939;43.596;1.320;2023-02-03T09:00:41;40.72;;;20.60;;
27505;SDS011;14939;43.596;1.320;2023-02-03T09:03:07;53.10;;;31.80;;
27505;SDS011;14939;43.596;1.320;2023-02-03T09:05:33;39.47;;;18.20;;
27505;SDS011;14939;43.596;1.320;2023-02-03T09:07:59;37.03;;;17.73;;
27505;SDS011;14939;43.596;1.320;2023-02-03T09:10:24;44.63;;;17.45;;
27505;SDS011;14939;43.596;1.320;2023-02-03T09:12:50;39.30;;;17.95;;
27505;SDS011;14939;43.596;1.320;2023-02-03T09:15:16;41.75;;;17.65;;
27505;SDS011;14939;43.596;1.320;2023-02-03T09:17:42;40.33;;;17.75;;
27505;SDS011;14939;43.596;1.320;2023-02-03T09:20:08;41.08;;;18.80;;
27505;SDS011;14939;43.596;1.320;2023-02-03T09:22:34;40.50;;;17.80;;
27505;SDS011;14939;43.596;1.320;2023-02-03T09:25:00;36.45;;;18.60;;
27505;SDS011;14939;43.596;1.320;2023-02-03T09:27:25;43.63;;;18.60;;
27505;SDS011;14939;43.596;1.320;2023-02-03T09:29:51;37.22;;;18.42;;
27505;SDS011;14939;43.596;1.320;2023-02-03T09:32:17;36.15;;;15.68;;
27505;SDS011;14939;43.596;1.320;2023-02-03T09:34:42;35.42;;;14.95;;
27505;SDS011;14939;43.596;1.320;2023-02-03T09:37:08;26.95;;;12.55;;
27505;SDS011;14939;43.596;1.320;2023-02-03T09:39:34;28.73;;;11.50;;
27505;SDS011;14939;43.596;1.320;2023-02-03T09:45:20;31.35;;;10.95;;
27505;SDS011;14939;43.596;1.320;2023-02-03T09:47:50;31.42;;;10.75;;
27505;SDS011;14939;43.596;1.320;2023-02-03T09:50:20;26.05;;;10.82;;
27505;SDS011;14939;43.596;1.320;2023-02-03T09:52:49;28.95;;;11.68;;
27505;SDS011;14939;43.596;1.320;2023-02-03T09:55:27;29.00;;;11.90;;
27505;SDS011;14939;43.596;1.320;2023-02-03T09:58:11;27.63;;;11.38;;
27505;SDS011;14939;43.596;1.320;2023-02-03T10:05:56;30.02;;;11.35;;
27505;SDS011;14939;43.596;1.320;2023-02-03T10:14:33;28.58;;;9.68;;
27505;SDS011;14939;43.596;1.320;2023-02-03T10:19:54;30.55;;;10.68;;
27505;SDS011;14939;43.596;1.320;2023-02-03T10:22:28;20.45;;;8.15;;
27505;SDS011;14939;43.596;1.320;2023-02-03T10:27:27;23.10;;;7.50;;
27505;SDS011;14939;43.596;1.320;2023-02-03T10:29:56;24.00;;;8.30;;
27505;SDS011;14939;43.596;1.320;2023-02-03T10:32:23;19.17;;;7.97;;
27505;SDS011;14939;43.596;1.320;2023-02-03T10:34:51;21.50;;;7.00;;
27505;SDS011;14939;43.596;1.320;2023-02-03T10:37:22;17.83;;;6.55;;
27505;SDS011;14939;43.596;1.320;2023-02-03T10:40:03;22.33;;;6.55;;
27505;SDS011;14939;43.596;1.320;2023-02-03T10:42:29;23.10;;;6.50;;
27505;SDS011;14939;43.596;1.320;2023-02-03T10:45:16;18.15;;;6.32;;
27505;SDS011;14939;43.596;1.320;2023-02-03T10:47:44;27.15;;;6.43;;
27505;SDS011;14939;43.596;1.320;2023-02-03T10:50:15;17.73;;;5.93;;
27505;SDS011;14939;43.596;1.320;2023-02-03T10:52:43;21.25;;;5.97;;
27505;SDS011;14939;43.596;1.320;2023-02-03T10:57:47;20.70;;;5.60;;
27505;SDS011;14939;43.596;1.320;2023-02-03T11:02:42;27.20;;;6.25;;
27505;SDS011;14939;43.596;1.320;2023-02-03T11:05:20;20.55;;;6.43;;
27505;SDS011;14939;43.596;1.320;2023-02-03T11:07:49;18.13;;;6.03;;
27505;SDS011;14939;43.596;1.320;2023-02-03T11:10:30;20.98;;;5.95;;
27505;SDS011;14939;43.596;1.320;2023-02-03T11:16:23;21.38;;;5.75;;
27505;SDS011;14939;43.596;1.320;2023-02-03T11:20:56;21.20;;;6.00;;
27505;SDS011;14939;43.596;1.320;2023-02-03T11:23:22;21.80;;;5.90;;
27505;SDS011;14939;43.596;1.320;2023-02-03T11:25:48;17.90;;;5.57;;
27505;SDS011;14939;43.596;1.320;2023-02-03T11:28:14;16.25;;;5.32;;
27505;SDS011;14939;43.596;1.320;2023-02-03T11:30:41;26.23;;;6.65;;
27505;SDS011;14939;43.596;1.320;2023-02-03T11:33:16;17.08;;;5.90;;
27505;SDS011;14939;43.596;1.320;2023-02-03T11:35:52;18.88;;;6.93;;
27505;SDS011;14939;43.596;1.320;2023-02-03T11:38:27;21.15;;;5.90;;
27505;SDS011;14939;43.596;1.320;2023-02-03T11:40:59;21.52;;;6.13;;
27505;SDS011;14939;43.596;1.320;2023-02-03T11:43:25;16.85;;;6.00;;
27505;SDS011;14939;43.596;1.320;2023-02-03T11:45:53;15.77;;;6.30;;
27505;SDS011;14939;43.596;1.320;2023-02-03T11:48:29;18.98;;;6.80;;
27505;SDS011;14939;43.596;1.320;2023-02-03T11:51:02;26.08;;;7.53;;
27505;SDS011;14939;43.596;1.320;2023-02-03T12:01:44;17.15;;;7.13;;
27505;SDS011;14939;43.596;1.320;2023-02-03T12:18:01;17.65;;;7.50;;
27505;SDS011;14939;43.596;1.320;2023-02-03T12:24:06;16.20;;;6.80;;
27505;SDS011;14939;43.596;1.320;2023-02-03T12:29:21;19.75;;;6.70;;
27505;SDS011;14939;43.596;1.320;2023-02-03T12:34:36;14.55;;;5.97;;
27505;SDS011;14939;43.596;1.320;2023-02-03T12:37:16;19.05;;;7.10;;
27505;SDS011;14939;43.596;1.320;2023-02-03T12:39:52;16.95;;;6.45;;
27505;SDS011;14939;43.596;1.320;2023-02-03T12:42:28;25.80;;;7.22;;
27505;SDS011;14939;43.596;1.320;2023-02-03T12:47:35;18.05;;;6.78;;
27505;SDS011;14939;43.596;1.320;2023-02-03T12:52:52;21.77;;;7.07;;
27505;SDS011;14939;43.596;1.320;2023-02-03T12:55:27;19.17;;;6.53;;
27505;SDS011;14939;43.596;1.320;2023-02-03T12:58:03;16.40;;;6.65;;
27505;SDS011;14939;43.596;1.320;2023-02-03T13:00:46;21.35;;;7.20;;
27505;SDS011;14939;43.596;1.320;2023-02-03T13:06:21;17.00;;;6.63;;
27505;SDS011;14939;43.596;1.320;2023-02-03T13:17:05;17.30;;;7.00;;
27505;SDS011;14939;43.596;1.320;2023-02-03T13:19:38;13.85;;;4.90;;
27505;SDS011;14939;43.596;1.320;2023-02-03T13:22:11;14.07;;;5.40;;
27505;SDS011;14939;43.596;1.320;2023-02-03T13:24:39;15.82;;;5.28;;
27505;SDS011;14939;43.596;1.320;2023-02-03T13:27:14;18.05;;;5.80;;
27505;SDS011;14939;43.596;1.320;2023-02-03T13:37:53;15.23;;;5.05;;
27505;SDS011;14939;43.596;1.320;2023-02-03T13:43:25;16.45;;;4.90;;
27505;SDS011;14939;43.596;1.320;2023-02-03T13:45:55;14.50;;;5.57;;
27505;SDS011;14939;43.596;1.320;2023-02-03T13:48:22;13.57;;;4.72;;
27505;SDS011;14939;43.596;1.320;2023-02-03T13:51:01;14.35;;;4.95;;
27505;SDS011;14939;43.596;1.320;2023-02-03T13:53:34;15.52;;;4.93;;
27505;SDS011;14939;43.596;1.320;2023-02-03T13:56:03;19.02;;;4.95;;
27505;SDS011;14939;43.596;1.320;2023-02-03T13:58:34;14.90;;;4.80;;
27505;SDS011;14939;43.596;1.320;2023-02-03T14:01:04;19.42;;;4.68;;
27505;SDS011;14939;43.596;1.320;2023-02-03T14:03:49;13.38;;;4.90;;
27505;SDS011;14939;43.596;1.320;2023-02-03T14:11:48;13.60;;;3.40;;
27505;SDS011;14939;43.596;1.320;2023-02-03T14:16:41;12.68;;;3.47;;
27505;SDS011;14939;43.596;1.320;2023-02-03T14:21:37;9.10;;;2.88;;
27505;SDS011;14939;43.596;1.320;2023-02-03T14:24:09;10.50;;;3.20;;
27505;SDS011;14939;43.596;1.320;2023-02-03T14:26:41;15.38;;;3.20;;
27505;SDS011;14939;43.596;1.320;2023-02-03T14:29:10;13.90;;;3.92;;
27505;SDS011;14939;43.596;1.320;2023-02-03T14:31:57;11.05;;;3.38;;
27505;SDS011;14939;43.596;1.320;2023-02-03T14:37:09;13.60;;;3.58;;
27505;SDS011;14939;43.596;1.320;2023-02-03T14:48:31;12.40;;;3.73;;
27505;SDS011;14939;43.596;1.320;2023-02-03T15:00:02;10.63;;;3.55;;
27505;SDS011;14939;43.596;1.320;2023-02-03T15:05:41;9.50;;;3.63;;
27505;SDS011;14939;43.596;1.320;2023-02-03T15:14:17;10.00;;;3.25;;
27505;SDS011;14939;43.596;1.320;2023-02-03T15:16:44;13.40;;;3.95;;
27505;SDS011;14939;43.596;1.320;2023-02-03T15:19:16;11.07;;;3.75;;
27505;SDS011;14939;43.596;1.320;2023-02-03T15:21:46;13.13;;;3.60;;
27505;SDS011;14939;43.596;1.320;2023-02-03T15:24:15;9.90;;;3.25;;
27505;SDS011;14939;43.596;1.320;2023-02-03T15:26:46;12.35;;;3.30;;
27505;SDS011;14939;43.596;1.320;2023-02-03T15:29:29;9.82;;;3.10;;
27505;SDS011;14939;43.596;1.320;2023-02-03T15:32:05;13.30;;;3.53;;
27505;SDS011;14939;43.596;1.320;2023-02-03T15:34:49;10.27;;;3.92;;
27505;SDS011;14939;43.596;1.320;2023-02-03T15:37:17;11.80;;;3.50;;
27505;SDS011;14939;43.596;1.320;2023-02-03T15:39:57;10.57;;;3.30;;
27505;SDS011;14939;43.596;1.320;2023-02-03T15:42:34;7.85;;;3.33;;
27505;SDS011;14939;43.596;1.320;2023-02-03T15:47:53;9.88;;;2.80;;
27505;SDS011;14939;43.596;1.320;2023-02-03T15:50:25;10.05;;;3.28;;
27505;SDS011;14939;43.596;1.320;2023-02-03T15:52:54;11.27;;;3.00;;
27505;SDS011;14939;43.596;1.320;2023-02-03T15:55:32;16.40;;;3.28;;
27505;SDS011;14939;43.596;1.320;2023-02-03T15:58:12;9.30;;;2.90;;
27505;SDS011;14939;43.596;1.320;2023-02-03T16:00:46;12.48;;;3.42;;
27505;SDS011;14939;43.596;1.320;2023-02-03T16:03:20;9.82;;;3.25;;
27505;SDS011;14939;43.596;1.320;2023-02-03T16:05:51;9.32;;;3.15;;
27505;SDS011;14939;43.596;1.320;2023-02-03T16:08:35;10.15;;;3.10;;
27505;SDS011;14939;43.596;1.320;2023-02-03T16:13:54;12.32;;;3.78;;
27505;SDS011;14939;43.596;1.320;2023-02-03T16:18:54;13.05;;;4.63;;
27505;SDS011;14939;43.596;1.320;2023-02-03T16:21:36;15.30;;;6.45;;
27505;SDS011;14939;43.596;1.320;2023-02-03T16:24:56;12.88;;;4.80;;
27505;SDS011;14939;43.596;1.320;2023-02-03T16:30:14;12.88;;;4.57;;
27505;SDS011;14939;43.596;1.320;2023-02-03T16:35:55;15.60;;;6.40;;
27505;SDS011;14939;43.596;1.320;2023-02-03T16:38:44;10.82;;;5.40;;
27505;SDS011;14939;43.596;1.320;2023-02-03T16:41:32;12.98;;;5.20;;
27505;SDS011;14939;43.596;1.320;2023-02-03T16:44:16;14.32;;;5.50;;
27505;SDS011;14939;43.596;1.320;2023-02-03T16:47:01;13.02;;;5.97;;
27505;SDS011;14939;43.596;1.320;2023-02-03T16:49:46;16.60;;;5.72;;
27505;SDS011;14939;43.596;1.320;2023-02-03T16:52:30;14.23;;;6.30;;
27505;SDS011;14939;43.596;1.320;2023-02-03T16:54:56;21.23;;;6.22;;
27505;SDS011;14939;43.596;1.320;2023-02-03T16:57:22;16.38;;;6.03;;
27505;SDS011;14939;43.596;1.320;2023-02-03T16:59:48;15.57;;;6.80;;
27505;SDS011;14939;43.596;1.320;2023-02-03T17:02:14;15.63;;;7.38;;
27505;SDS011;14939;43.596;1.320;2023-02-03T17:04:40;15.93;;;5.85;;
27505;SDS011;14939;43.596;1.320;2023-02-03T17:07:06;17.02;;;6.60;;
27505;SDS011;14939;43.596;1.320;2023-02-03T17:09:32;15.60;;;6.78;;
27505;SDS011;14939;43.596;1.320;2023-02-03T17:12:01;26.65;;;7.57;;
27505;SDS011;14939;43.596;1.320;2023-02-03T17:14:27;20.85;;;9.30;;
27505;SDS011;14939;43.596;1.320;2023-02-03T17:16:53;22.02;;;9.77;;
27505;SDS011;14939;43.596;1.320;2023-02-03T17:19:18;24.00;;;10.35;;
27505;SDS011;14939;43.596;1.320;2023-02-03T17:21:44;29.52;;;15.65;;
27505;SDS011;14939;43.596;1.320;2023-02-03T17:24:11;21.23;;;11.05;;
27505;SDS011;14939;43.596;1.320;2023-02-03T17:26:38;27.67;;;13.82;;
27505;SDS011;14939;43.596;1.320;2023-02-03T17:29:03;41.63;;;19.33;;
27505;SDS011;14939;43.596;1.320;2023-02-03T17:31:30;35.25;;;18.25;;
27505;SDS011;14939;43.596;1.320;2023-02-03T17:33:56;59.13;;;26.38;;